createdAt,value
2023-12-12T00:01:07.170Z,8.60
2023-12-12T00:03:34.697Z,9.90
2023-12-12T00:06:02.606Z,7.77
2023-12-12T00:08:29.269Z,9.67
2023-12-12T00:10:58.557Z,8.87
2023-12-12T00:13:25.281Z,9.10
2023-12-12T00:15:52.045Z,7.60
2023-12-12T00:18:18.830Z,8.50
2023-12-12T00:20:46.082Z,7.13
2023-12-12T00:23:12.738Z,7.63
2023-12-12T00:25:39.341Z,6.63
2023-12-12T00:28:06.121Z,6.77
2023-12-12T00:30:32.835Z,8.13
2023-12-12T00:32:59.605Z,7.80
2023-12-12T00:35:26.357Z,7.80
2023-12-12T00:37:53.370Z,8.03
2023-12-12T00:40:20.546Z,8.77
2023-12-12T00:42:47.231Z,8.00
2023-12-12T00:45:14.009Z,8.10
2023-12-12T00:47:40.776Z,8.73
2023-12-12T00:50:08.325Z,7.27
2023-12-12T00:52:36.123Z,8.47
2023-12-12T00:55:03.506Z,7.17
2023-12-12T00:57:30.758Z,8.20
2023-12-12T00:59:57.590Z,8.37
2023-12-12T01:02:27.517Z,8.63
2023-12-12T01:04:54.811Z,8.63
2023-12-12T01:07:21.562Z,7.70
2023-12-12T01:09:48.566Z,7.23
2023-12-12T01:12:15.272Z,7.90
2023-12-12T01:14:41.991Z,9.33
2023-12-12T01:17:08.706Z,8.90
2023-12-12T01:19:35.520Z,9.33
2023-12-12T01:22:02.338Z,8.10
2023-12-12T01:24:31.381Z,7.63
2023-12-12T01:26:58.036Z,6.27
2023-12-12T01:29:24.679Z,8.87
2023-12-12T01:31:51.377Z,6.97
2023-12-12T01:34:18.214Z,6.00
2023-12-12T01:36:44.942Z,5.93
2023-12-12T01:39:11.632Z,6.90
2023-12-12T01:41:38.370Z,5.80
2023-12-12T01:44:05.123Z,5.53
2023-12-12T01:46:33.589Z,5.33
2023-12-12T01:49:00.545Z,5.73
2023-12-12T01:51:27.572Z,5.77
2023-12-12T01:53:54.544Z,6.40
2023-12-12T01:56:21.948Z,8.13
2023-12-12T01:58:52.400Z,7.70
2023-12-12T02:01:20.108Z,8.20
2023-12-12T02:03:47.303Z,7.07
2023-12-12T02:06:22.801Z,7.60
2023-12-12T02:08:53.514Z,6.87
2023-12-12T02:11:20.568Z,7.60
2023-12-12T02:13:47.312Z,6.20
2023-12-12T02:16:14.988Z,7.23
2023-12-12T02:18:41.986Z,7.43
2023-12-12T02:21:08.860Z,8.17
2023-12-12T02:23:35.718Z,9.10
2023-12-12T02:26:03.996Z,9.43
2023-12-12T02:28:30.774Z,8.40
2023-12-12T02:30:59.892Z,9.53
2023-12-12T02:33:26.744Z,9.33
2023-12-12T02:35:53.437Z,9.23
2023-12-12T02:38:20.168Z,11.47
2023-12-12T02:40:46.906Z,9.53
2023-12-12T02:43:13.853Z,9.13
2023-12-12T02:45:40.579Z,8.33
2023-12-12T02:48:07.332Z,9.67
2023-12-12T02:50:33.977Z,8.70
2023-12-12T02:53:00.704Z,9.10
2023-12-12T02:55:27.420Z,10.17
2023-12-12T02:57:54.163Z,9.97
2023-12-12T03:00:21.025Z,9.60
2023-12-12T03:02:47.968Z,9.03
2023-12-12T03:05:14.722Z,8.50
2023-12-12T03:07:41.546Z,10.37
2023-12-12T03:10:08.952Z,10.70
2023-12-12T03:12:35.779Z,9.43
2023-12-12T03:15:02.558Z,8.53
2023-12-12T03:17:29.374Z,9.53
2023-12-12T03:19:56.447Z,8.00
2023-12-12T03:22:23.072Z,7.10
2023-12-12T03:24:49.770Z,4.20
2023-12-12T03:27:16.460Z,2.47
2023-12-12T03:29:43.197Z,2.13
2023-12-12T03:32:09.886Z,3.27
2023-12-12T03:34:36.657Z,2.50
2023-12-12T03:37:03.406Z,2.63
2023-12-12T03:39:30.058Z,1.77
2023-12-12T03:41:56.688Z,2.53
2023-12-12T03:44:23.293Z,1.77
2023-12-12T03:46:49.924Z,1.93
2023-12-12T03:49:16.729Z,1.90
2023-12-12T03:51:43.829Z,2.17
2023-12-12T03:54:10.493Z,1.80
2023-12-12T03:56:37.109Z,2.03
2023-12-12T03:59:03.911Z,2.10
2023-12-12T04:01:30.719Z,1.20
2023-12-12T04:03:57.557Z,2.00
2023-12-12T04:06:24.506Z,2.30
2023-12-12T04:08:51.711Z,2.00
2023-12-12T04:11:18.372Z,2.10
2023-12-12T04:13:45.098Z,1.63
2023-12-12T04:16:11.908Z,1.90
2023-12-12T04:18:38.677Z,5.83
2023-12-12T04:21:06.744Z,8.03
2023-12-12T04:23:36.363Z,7.93
2023-12-12T04:26:04.167Z,7.43
2023-12-12T04:28:31.083Z,8.03
2023-12-12T04:30:57.829Z,6.63
2023-12-12T04:33:24.478Z,7.47
2023-12-12T04:35:51.167Z,6.97
2023-12-12T04:38:18.177Z,5.93
2023-12-12T04:40:44.803Z,5.47
2023-12-12T04:43:11.505Z,6.70
2023-12-12T04:45:38.172Z,7.43
2023-12-12T04:48:05.187Z,6.37
2023-12-12T04:50:32.054Z,6.40
2023-12-12T04:52:58.761Z,6.97
2023-12-12T04:55:25.468Z,7.63
2023-12-12T04:57:52.270Z,6.53
2023-12-12T05:00:19.752Z,6.13
2023-12-12T05:02:47.122Z,6.80
2023-12-12T05:05:14.014Z,4.30
2023-12-12T05:07:40.890Z,7.73
2023-12-12T05:10:08.368Z,7.10
2023-12-12T05:12:36.089Z,7.80
2023-12-12T05:15:03.619Z,7.60
2023-12-12T05:17:30.854Z,6.03
2023-12-12T05:20:00.468Z,6.27
2023-12-12T05:22:27.520Z,7.43
2023-12-12T05:24:54.252Z,7.83
2023-12-12T05:27:21.931Z,7.83
2023-12-12T05:29:48.753Z,7.10
2023-12-12T05:32:15.844Z,7.33
2023-12-12T05:34:42.739Z,6.43
2023-12-12T05:37:09.563Z,9.47
2023-12-12T05:39:36.468Z,7.90
2023-12-12T05:42:04.224Z,7.83
2023-12-12T05:44:33.152Z,9.33
2023-12-12T05:47:00.231Z,7.70
2023-12-12T05:49:27.186Z,6.10
2023-12-12T05:51:54.136Z,8.00
2023-12-12T05:54:23.940Z,8.93
2023-12-12T05:56:52.694Z,6.67
2023-12-12T05:59:19.381Z,7.13
2023-12-12T06:01:46.174Z,6.90
2023-12-12T06:04:16.038Z,8.43
2023-12-12T06:06:44.554Z,7.27
2023-12-12T06:09:12.901Z,7.27
2023-12-12T06:11:40.420Z,7.60
2023-12-12T06:14:07.471Z,8.40
2023-12-12T06:16:35.666Z,6.37
2023-12-12T06:19:06.271Z,7.43
2023-12-12T06:21:34.291Z,6.97
2023-12-12T06:24:03.435Z,7.07
2023-12-12T06:26:31.095Z,7.30
2023-12-12T06:28:57.876Z,6.43
2023-12-12T06:31:24.981Z,7.27
2023-12-12T06:33:53.307Z,6.70
2023-12-12T06:36:20.289Z,7.17
2023-12-12T06:38:47.101Z,6.97
2023-12-12T06:41:13.739Z,4.47
2023-12-12T06:43:41.127Z,4.10
2023-12-12T06:46:09.288Z,6.17
2023-12-12T06:48:38.344Z,30.93
2023-12-12T06:51:06.173Z,13.33
2023-12-12T06:53:32.972Z,21.20
2023-12-12T06:55:59.611Z,7.47
2023-12-12T06:58:26.329Z,26.10
2023-12-12T07:00:53.273Z,9.63
2023-12-12T07:03:20.241Z,12.60
2023-12-12T07:05:47.097Z,8.70
2023-12-12T07:08:13.840Z,20.67
2023-12-12T07:10:41.541Z,24.90
2023-12-12T07:15:52.542Z,10.23
2023-12-12T07:18:19.352Z,10.87
2023-12-12T07:20:46.153Z,10.83
2023-12-12T07:23:16.013Z,11.13
2023-12-12T07:25:44.381Z,9.13
2023-12-12T07:28:11.353Z,8.50
2023-12-12T07:30:38.197Z,11.00
2023-12-12T07:33:05.152Z,13.57
2023-12-12T07:35:31.940Z,14.10
2023-12-12T07:37:59.201Z,10.50
2023-12-12T07:40:25.989Z,9.23
2023-12-12T07:42:52.826Z,8.20
2023-12-12T07:45:19.751Z,9.07
2023-12-12T07:47:47.015Z,8.03
2023-12-12T07:50:14.060Z,8.57
2023-12-12T07:52:41.126Z,9.13
2023-12-12T07:55:08.133Z,9.50
2023-12-12T07:57:35.421Z,9.27
2023-12-12T08:00:02.351Z,9.00
2023-12-12T08:02:29.868Z,9.60
2023-12-12T08:04:56.508Z,6.30
2023-12-12T08:07:24.261Z,4.70
2023-12-12T08:09:51.130Z,5.67
2023-12-12T08:12:18.269Z,2.97
2023-12-12T08:14:47.445Z,2.40
2023-12-12T08:17:15.726Z,1.23
2023-12-12T08:19:43.382Z,1.83
2023-12-12T08:22:10.223Z,2.30
2023-12-12T08:24:36.940Z,1.70
2023-12-12T08:27:03.681Z,2.37
2023-12-12T08:29:32.229Z,2.07
2023-12-12T08:31:59.432Z,1.03
2023-12-12T08:34:26.506Z,1.50
2023-12-12T08:36:53.259Z,1.60
2023-12-12T08:39:20.236Z,1.10
2023-12-12T08:41:46.953Z,1.67
2023-12-12T08:44:13.644Z,1.20
2023-12-12T08:46:45.010Z,1.43
2023-12-12T08:49:12.105Z,1.70
2023-12-12T08:51:40.544Z,2.20
2023-12-12T08:54:07.543Z,2.10
2023-12-12T08:56:34.368Z,1.90
2023-12-12T08:59:01.109Z,1.73
2023-12-12T09:01:28.114Z,1.97
2023-12-12T09:03:55.387Z,1.70
2023-12-12T09:06:22.299Z,2.03
2023-12-12T09:08:49.222Z,1.73
2023-12-12T09:11:16.248Z,1.37
2023-12-12T09:13:44.507Z,1.50
2023-12-12T09:16:11.590Z,1.73
2023-12-12T09:18:39.216Z,1.40
2023-12-12T09:21:07.842Z,1.10
2023-12-12T09:23:34.847Z,1.83
2023-12-12T09:26:02.417Z,2.07
2023-12-12T09:28:29.103Z,1.63
2023-12-12T09:30:55.924Z,1.57
2023-12-12T09:33:23.079Z,1.57
2023-12-12T09:35:51.285Z,2.47
2023-12-12T09:38:18.158Z,3.90
2023-12-12T09:40:45.182Z,2.27
2023-12-12T09:43:13.809Z,4.50
2023-12-12T09:45:46.674Z,5.23
2023-12-12T09:48:17.210Z,2.37
2023-12-12T09:50:48.454Z,3.37
2023-12-12T09:53:15.683Z,2.90
2023-12-12T09:55:42.569Z,2.27
2023-12-12T09:58:09.325Z,1.47
2023-12-12T10:00:36.120Z,2.43
2023-12-12T10:03:06.672Z,2.07
2023-12-12T10:05:39.390Z,2.07
2023-12-12T10:08:14.038Z,1.80
2023-12-12T10:10:44.790Z,1.57
2023-12-12T10:13:12.405Z,1.97
2023-12-12T10:15:39.249Z,1.57
2023-12-12T10:18:06.534Z,1.40
2023-12-12T10:20:36.655Z,1.40
2023-12-12T10:23:06.470Z,2.13
2023-12-12T10:25:35.732Z,1.60
2023-12-12T10:28:03.409Z,1.73
2023-12-12T10:30:30.636Z,1.80
2023-12-12T10:32:57.618Z,2.47
2023-12-12T10:35:26.606Z,1.60
2023-12-12T10:37:54.456Z,1.97
2023-12-12T10:40:23.935Z,1.93
2023-12-12T10:42:52.288Z,2.30
2023-12-12T10:45:19.438Z,2.17
2023-12-12T10:47:51.940Z,1.13
2023-12-12T10:50:20.397Z,2.20
2023-12-12T10:52:49.926Z,1.77
2023-12-12T10:55:18.526Z,1.60
2023-12-12T10:57:48.340Z,1.53
2023-12-12T11:00:19.038Z,2.00
2023-12-12T11:02:47.843Z,2.57
2023-12-12T11:05:16.742Z,2.83
2023-12-12T11:07:49.644Z,3.10
2023-12-12T11:10:20.665Z,2.17
2023-12-12T11:12:52.877Z,2.73
2023-12-12T11:15:20.666Z,3.63
2023-12-12T11:17:48.905Z,2.80
2023-12-12T11:20:18.540Z,3.47
2023-12-12T11:22:53.313Z,3.10
2023-12-12T11:25:22.401Z,2.83
2023-12-12T11:27:58.669Z,2.67
2023-12-12T11:30:51.859Z,2.43
2023-12-12T11:33:18.637Z,2.07
2023-12-12T11:35:47.171Z,2.70
2023-12-12T11:38:31.287Z,2.30
2023-12-12T11:41:10.796Z,2.27
2023-12-12T11:43:37.659Z,2.63
2023-12-12T11:46:21.979Z,2.57
2023-12-12T11:48:49.122Z,2.57
2023-12-12T11:51:34.559Z,2.40
2023-12-12T11:54:08.043Z,2.60
2023-12-12T11:56:35.228Z,2.40
2023-12-12T11:59:02.327Z,2.43
2023-12-12T12:01:29.150Z,2.57
2023-12-12T12:03:55.920Z,2.07
2023-12-12T12:06:22.816Z,2.03
2023-12-12T12:08:51.628Z,1.80
2023-12-12T12:11:18.340Z,1.70
2023-12-12T12:13:45.093Z,1.20
2023-12-12T12:16:12.361Z,2.03
2023-12-12T12:18:39.943Z,1.87
2023-12-12T12:21:09.127Z,1.67
2023-12-12T12:23:40.111Z,2.40
2023-12-12T12:26:07.178Z,2.10
2023-12-12T12:28:35.184Z,3.27
2023-12-12T12:31:03.119Z,2.40
2023-12-12T12:33:34.013Z,1.67
2023-12-12T12:36:00.863Z,2.30
2023-12-12T12:38:35.264Z,2.03
2023-12-12T12:41:02.107Z,2.90
2023-12-12T12:43:28.862Z,2.60
2023-12-12T12:45:57.735Z,1.80
2023-12-12T12:48:28.653Z,1.70
2023-12-12T12:50:57.156Z,1.40
2023-12-12T12:53:23.855Z,3.60
2023-12-12T12:55:50.768Z,2.90
2023-12-12T12:58:17.671Z,2.43
2023-12-12T13:00:46.925Z,2.20
2023-12-12T13:03:14.693Z,1.80
2023-12-12T13:05:41.834Z,2.57
2023-12-12T13:08:08.722Z,2.47
2023-12-12T13:10:44.083Z,3.20
2023-12-12T13:13:17.370Z,2.10
2023-12-12T13:15:44.326Z,3.13
2023-12-12T13:18:11.203Z,1.90
2023-12-12T13:20:38.045Z,1.80
2023-12-12T13:23:04.767Z,3.00
2023-12-12T13:25:32.660Z,2.43
2023-12-12T13:27:59.708Z,2.50
2023-12-12T13:30:26.957Z,2.10
2023-12-12T13:32:54.001Z,2.90
2023-12-12T13:35:33.749Z,3.00
2023-12-12T13:38:04.866Z,3.10
2023-12-12T13:40:32.846Z,2.30
2023-12-12T13:42:59.861Z,1.83
2023-12-12T13:45:26.728Z,3.43
2023-12-12T13:47:54.123Z,5.30
2023-12-12T13:50:22.760Z,3.17
2023-12-12T13:52:49.573Z,4.17
2023-12-12T13:55:16.268Z,3.17
2023-12-12T13:57:42.989Z,3.70
2023-12-12T14:00:10.986Z,3.33
2023-12-12T14:02:38.624Z,2.87
2023-12-12T14:05:06.369Z,2.97
2023-12-12T14:07:34.107Z,2.50
2023-12-12T14:10:00.870Z,3.00
2023-12-12T14:12:27.683Z,2.70
2023-12-12T14:14:54.769Z,2.90
2023-12-12T14:17:21.817Z,2.07
2023-12-12T14:19:48.757Z,2.80
2023-12-12T14:22:15.604Z,4.80
2023-12-12T14:24:42.383Z,3.97
2023-12-12T14:27:09.182Z,3.70
2023-12-12T14:29:36.305Z,3.63
2023-12-12T14:32:03.067Z,5.80
2023-12-12T14:34:29.962Z,3.70
2023-12-12T14:36:56.749Z,3.90
2023-12-12T14:39:24.740Z,2.03
2023-12-12T14:41:51.346Z,2.27
2023-12-12T14:44:18.040Z,2.43
2023-12-12T14:46:44.791Z,3.30
2023-12-12T14:49:11.636Z,6.70
2023-12-12T14:51:38.448Z,4.20
2023-12-12T14:54:05.657Z,4.27
2023-12-12T14:56:33.559Z,5.10
2023-12-12T14:59:00.536Z,4.17
2023-12-12T15:01:27.885Z,3.97
2023-12-12T15:03:55.351Z,3.67
2023-12-12T15:06:23.182Z,4.40
2023-12-12T15:08:49.880Z,2.87
2023-12-12T15:11:16.577Z,3.50
2023-12-12T15:13:43.289Z,3.53
2023-12-12T15:16:10.866Z,3.67
2023-12-12T15:18:38.161Z,3.00
2023-12-12T15:21:06.076Z,1.93
2023-12-12T15:23:36.564Z,2.93
2023-12-12T15:26:04.504Z,10.47
2023-12-12T15:28:31.242Z,7.67
2023-12-12T15:30:59.524Z,6.37
2023-12-12T15:33:27.071Z,5.80
2023-12-12T15:35:54.044Z,7.17
2023-12-12T15:38:20.756Z,10.57
2023-12-12T15:40:47.706Z,14.93
2023-12-12T15:43:14.996Z,10.47
2023-12-12T15:45:42.207Z,12.70
2023-12-12T15:48:09.137Z,10.03
2023-12-12T15:50:37.214Z,9.00
2023-12-12T15:53:04.051Z,5.43
2023-12-12T15:55:31.217Z,5.43
2023-12-12T15:57:58.474Z,4.93
2023-12-12T16:00:25.827Z,5.60
2023-12-12T16:02:52.686Z,6.17
2023-12-12T16:05:20.684Z,5.63
2023-12-12T16:07:48.772Z,5.30
2023-12-12T16:10:16.613Z,5.90
2023-12-12T16:12:43.373Z,5.10
2023-12-12T16:15:10.239Z,4.50
2023-12-12T16:17:37.931Z,4.97
2023-12-12T16:20:06.661Z,4.47
2023-12-12T16:22:34.819Z,4.10
2023-12-12T16:25:01.882Z,4.47
2023-12-12T16:27:28.790Z,4.53
2023-12-12T16:29:55.578Z,47.23
2023-12-12T16:32:23.495Z,30.73
2023-12-12T16:34:52.847Z,16.20
2023-12-12T16:37:20.357Z,10.07
2023-12-12T16:39:47.102Z,10.73
2023-12-12T16:42:16.030Z,8.23
2023-12-12T16:44:43.290Z,6.87
2023-12-12T16:47:10.966Z,9.43
2023-12-12T16:49:37.961Z,9.13
2023-12-12T16:52:05.077Z,7.70
2023-12-12T16:54:34.831Z,9.27
2023-12-12T16:57:01.625Z,8.87
2023-12-12T20:31:21.292Z,6.13
2023-12-12T20:33:48.096Z,6.50
2023-12-12T20:36:17.704Z,5.67
2023-12-12T20:38:45.185Z,5.03
2023-12-12T20:41:12.538Z,4.90
2023-12-12T20:43:40.190Z,4.90
2023-12-12T20:46:08.849Z,4.90
2023-12-12T20:48:35.577Z,4.63
2023-12-12T20:51:03.416Z,5.03
2023-12-12T20:53:31.218Z,5.47
2023-12-12T20:55:58.249Z,5.73
2023-12-12T20:58:24.904Z,5.27
2023-12-12T21:00:51.590Z,5.20
2023-12-12T21:03:18.383Z,8.67
2023-12-12T21:05:45.065Z,7.90
2023-12-12T21:08:11.753Z,9.30
2023-12-12T21:10:40.338Z,9.03
2023-12-12T21:13:07.227Z,8.03
2023-12-12T21:15:34.008Z,8.70
2023-12-12T21:18:00.999Z,8.93
2023-12-12T21:20:27.849Z,11.33
2023-12-12T21:22:54.579Z,10.17
2023-12-12T21:25:21.295Z,5.23
2023-12-12T21:27:48.152Z,7.20
2023-12-12T21:30:15.092Z,7.03
2023-12-12T21:32:42.662Z,7.80
2023-12-12T21:35:10.286Z,6.90
2023-12-12T21:37:37.646Z,6.30
2023-12-12T21:40:06.502Z,8.10
2023-12-12T21:42:33.330Z,6.87
2023-12-12T21:44:59.988Z,6.87
2023-12-12T21:47:26.785Z,6.80
2023-12-12T21:49:53.654Z,7.27
2023-12-12T21:52:20.680Z,8.60
2023-12-12T21:54:47.681Z,7.73
2023-12-12T21:57:14.506Z,9.00
2023-12-12T21:59:41.148Z,9.00
2023-12-12T22:02:07.947Z,6.87
2023-12-12T22:04:34.706Z,7.10
2023-12-12T22:07:02.531Z,7.03
2023-12-12T22:09:29.303Z,6.47
2023-12-12T22:11:56.061Z,5.20
2023-12-12T22:14:22.973Z,6.97
2023-12-12T22:16:49.714Z,7.13
2023-12-12T22:19:16.524Z,9.57
2023-12-12T22:21:43.265Z,9.57
2023-12-12T22:24:09.980Z,9.27
2023-12-12T22:26:36.727Z,8.83
2023-12-12T22:29:04.042Z,4.33
2023-12-12T22:31:30.986Z,3.67
2023-12-12T22:33:57.870Z,4.70
2023-12-12T22:36:24.608Z,5.13
2023-12-12T22:38:51.380Z,5.40
2023-12-12T22:41:21.752Z,6.10
2023-12-12T22:43:49.014Z,6.30
2023-12-12T22:46:20.001Z,8.63
2023-12-12T22:48:47.328Z,8.00
2023-12-12T22:51:20.337Z,9.73
2023-12-12T22:53:47.104Z,7.70
2023-12-12T22:56:14.411Z,6.20
2023-12-12T22:58:42.158Z,5.50
2023-12-12T23:01:11.316Z,5.80
2023-12-12T23:03:38.245Z,6.40
2023-12-12T23:06:06.490Z,6.77
2023-12-12T23:08:36.602Z,5.37
2023-12-12T23:11:04.003Z,6.80
2023-12-12T23:13:30.747Z,5.50
2023-12-12T23:15:57.494Z,6.20
2023-12-12T23:18:24.374Z,5.57
2023-12-12T23:20:54.076Z,6.03
2023-12-12T23:23:23.241Z,5.03
2023-12-12T23:25:50.193Z,5.60
2023-12-12T23:28:17.314Z,3.67
2023-12-12T23:30:57.227Z,4.37
2023-12-12T23:33:31.971Z,4.33
2023-12-12T23:35:58.636Z,4.50
2023-12-12T23:38:25.217Z,4.13
2023-12-12T23:40:51.882Z,5.57
2023-12-12T23:43:18.661Z,4.97
2023-12-12T23:45:46.619Z,4.90
2023-12-12T23:48:13.434Z,4.20
2023-12-12T23:50:40.123Z,4.43
2023-12-12T23:53:07.012Z,4.73
2023-12-12T23:55:33.876Z,3.73
2023-12-12T23:58:00.795Z,4.50
